Time;durP1;ratioP1;P1;durP2;ratioP2;P2;SDS_P1;SDS_P2;PMS_P1;PMS_P2;Temp;Humidity;BMP_temperature;BMP_pressure;BME280_temperature;BME280_humidity;BME280_pressure;Samples;Min_cycle;Max_cycle;Signal;HPM_P1;HPM_P2
2021/12/12 00:00:31;;;;;;;22.27;8.80;;;;;;;5.24;96.82;102012.88;5043215;28;20179;-79
2021/12/12 00:03:02;;;;;;;31.58;10.30;;;;;;;5.23;96.72;102008.56;5070981;28;20113;-79
2021/12/12 00:05:40;;;;;;;25.27;9.32;;;;;;;5.23;96.78;102012.03;5059464;28;20040;-79
2021/12/12 00:08:06;;;;;;;17.45;8.55;;;;;;;5.24;96.90;102008.56;5060023;28;20044;-79
2021/12/12 00:10:33;;;;;;;24.33;9.23;;;;;;;5.23;96.82;102017.22;5069507;28;20041;-78
2021/12/12 00:13:02;;;;;;;25.33;9.52;;;;;;;5.22;96.86;102012.00;5037237;28;20166;-79
2021/12/12 00:15:27;;;;;;;24.00;10.00;;;;;;;5.23;97.03;102012.03;5057620;28;20096;-79
2021/12/12 00:17:53;;;;;;;22.30;9.00;;;;;;;5.24;97.06;102002.50;5070997;28;20111;-78
2021/12/12 00:20:20;;;;;;;26.20;9.43;;;;;;;5.22;97.07;102005.13;5067131;28;20046;-79
2021/12/12 00:22:46;;;;;;;21.27;8.43;;;;;;;5.23;96.98;102004.22;5060512;28;20356;-78
2021/12/12 00:25:12;;;;;;;30.35;8.15;;;;;;;5.22;97.13;101992.13;5057452;28;20040;-78
2021/12/12 00:27:38;;;;;;;28.50;9.65;;;;;;;5.22;97.05;101980.84;5057699;28;20228;-78
2021/12/12 00:30:05;;;;;;;28.73;9.23;;;;;;;5.22;97.13;101984.34;5057898;28;20082;-79
2021/12/12 00:32:32;;;;;;;17.60;8.27;;;;;;;5.23;97.07;101985.19;5053603;28;20028;-78
2021/12/12 00:35:00;;;;;;;21.48;8.70;;;;;;;5.24;97.14;101976.50;5049130;28;20340;-78
2021/12/12 00:37:27;;;;;;;25.80;9.10;;;;;;;5.24;97.22;101981.72;5042756;28;20048;-79
2021/12/12 00:39:55;;;;;;;22.50;8.02;;;;;;;5.24;97.19;101973.91;5057944;28;20324;-78
2021/12/12 00:42:25;;;;;;;20.88;8.25;;;;;;;5.25;97.26;101978.25;5058552;28;20336;-78
2021/12/12 00:44:56;;;;;;;24.80;8.35;;;;;;;5.25;97.27;101980.84;5057511;28;20071;-78
2021/12/12 00:47:22;;;;;;;26.77;8.25;;;;;;;5.24;97.23;101977.41;5058400;28;20104;-78
2021/12/12 00:49:47;;;;;;;20.88;7.78;;;;;;;5.25;97.36;101975.66;5030456;28;20050;-78
2021/12/12 00:52:14;;;;;;;24.65;8.95;;;;;;;5.25;97.34;101962.69;5079036;28;20050;-78
2021/12/12 00:54:40;;;;;;;24.52;8.45;;;;;;;5.26;97.53;101964.41;5043664;28;20111;-79
2021/12/12 00:57:07;;;;;;;22.08;8.85;;;;;;;5.27;97.42;101966.13;5044614;28;20362;-79
2021/12/12 00:59:32;;;;;;;21.95;8.50;;;;;;;5.27;97.45;101972.19;5077542;28;20335;-78
2021/12/12 01:01:58;;;;;;;26.33;9.10;;;;;;;5.27;97.42;101968.72;5080185;28;20100;-79
2021/12/12 01:04:28;;;;;;;19.38;8.23;;;;;;;5.27;97.40;101967.00;5077486;28;20050;-79
2021/12/12 01:06:54;;;;;;;17.95;7.75;;;;;;;5.26;97.42;101970.47;5078236;28;20058;-78
2021/12/12 01:09:26;;;;;;;20.67;8.15;;;;;;;5.26;97.48;101960.09;5078323;28;20050;-78
2021/12/12 01:11:52;;;;;;;25.50;8.90;;;;;;;5.26;97.45;101961.81;5044146;28;20024;-78
2021/12/12 01:14:29;;;;;;;23.13;8.23;;;;;;;5.25;97.25;101952.28;5077771;28;20040;-79
2021/12/12 01:17:08;;;;;;;27.65;7.63;;;;;;;5.25;97.42;101949.69;5061049;28;20032;-79
2021/12/12 01:19:43;;;;;;;20.70;7.63;;;;;;;5.24;97.31;101951.44;5060601;28;20039;-78
2021/12/12 01:22:15;;;;;;;30.77;7.70;;;;;;;5.24;97.56;101955.75;5060950;28;20041;-78
2021/12/12 01:24:44;;;;;;;18.70;7.30;;;;;;;5.24;97.50;101943.63;5056687;28;20037;-78
2021/12/12 01:27:09;;;;;;;18.25;7.82;;;;;;;5.26;97.72;101946.25;5044787;28;20056;-79
2021/12/12 01:29:35;;;;;;;16.35;7.68;;;;;;;5.26;97.69;101954.03;5024523;28;20025;-79
2021/12/12 01:32:02;;;;;;;27.08;7.97;;;;;;;5.26;97.77;101959.22;5043344;28;20093;-79
2021/12/12 01:34:29;;;;;;;17.50;7.65;;;;;;;5.26;97.53;101954.03;5044810;28;20069;-78
2021/12/12 01:37:22;;;;;;;20.40;7.40;;;;;;;5.28;97.88;101954.88;5044611;28;20548;-78
2021/12/12 01:39:48;;;;;;;18.90;7.55;;;;;;;5.28;98.07;101957.50;5057008;28;20051;-79
2021/12/12 01:42:33;;;;;;;21.55;7.60;;;;;;;5.28;97.95;101952.28;5059210;28;20351;-79
2021/12/12 01:45:07;;;;;;;18.63;7.28;;;;;;;5.30;97.98;101968.75;5063223;28;20039;-79
2021/12/12 01:47:34;;;;;;;19.83;6.43;;;;;;;5.29;97.99;101964.41;5064111;28;20036;-79
2021/12/12 01:50:02;;;;;;;20.88;7.72;;;;;;;5.30;98.19;101959.22;5077378;28;20066;-77
2021/12/12 01:52:28;;;;;;;19.98;6.68;;;;;;;5.30;98.00;101953.16;5056518;28;20032;-80
2021/12/12 01:55:21;;;;;;;20.67;7.20;;;;;;;5.30;98.14;101947.97;5041703;28;20044;-80
2021/12/12 01:57:46;;;;;;;18.65;7.38;;;;;;;5.28;98.14;101939.31;5048491;28;20026;-79
2021/12/12 02:00:20;;;;;;;15.40;7.38;;;;;;;5.30;98.30;101937.56;5060855;28;20037;-79
2021/12/12 02:02:45;;;;;;;16.95;7.68;;;;;;;5.29;98.32;101947.06;5072150;28;20040;-79
2021/12/12 02:05:15;;;;;;;19.50;7.95;;;;;;;5.30;98.19;101932.38;5058728;28;20033;-79
2021/12/12 02:07:43;;;;;;;14.65;7.47;;;;;;;5.31;98.40;101939.28;5054639;28;20032;-79
2021/12/12 02:10:14;;;;;;;14.20;6.80;;;;;;;5.32;98.41;101939.28;5042172;28;20017;-79
2021/12/12 02:12:40;;;;;;;17.75;7.45;;;;;;;5.32;98.44;101943.63;5074437;28;20025;-79
2021/12/12 02:15:07;;;;;;;14.73;6.43;;;;;;;5.32;98.53;101939.28;5061277;28;20047;-79
2021/12/12 02:17:38;;;;;;;13.18;6.93;;;;;;;5.31;98.38;101939.28;5076556;28;20037;-79
2021/12/12 02:20:33;;;;;;;13.15;6.85;;;;;;;5.33;98.62;101946.22;5035718;28;20037;-79
2021/12/12 02:23:17;;;;;;;11.20;6.93;;;;;;;5.34;98.53;101945.34;5076332;28;20043;-79
2021/12/12 02:36:42;;;;;;;19.05;7.25;;;;;;;5.37;98.63;101941.88;5061810;28;20059;-79
2021/12/12 02:39:15;;;;;;;11.68;7.57;;;;;;;5.35;98.79;101939.28;5050157;28;20037;-79
2021/12/12 02:41:41;;;;;;;20.27;7.80;;;;;;;5.35;98.83;101934.09;5055061;28;20051;-79
2021/12/12 02:44:06;;;;;;;15.10;7.93;;;;;;;5.35;98.75;101928.91;5065085;28;20037;-79
2021/12/12 02:46:34;;;;;;;16.70;8.23;;;;;;;5.37;98.79;101932.34;5064828;28;20058;-79
2021/12/12 02:49:11;;;;;;;16.80;9.02;;;;;;;5.36;99.00;101937.56;5042057;28;20223;-79
2021/12/12 02:51:38;;;;;;;15.55;9.05;;;;;;;5.37;98.93;101928.91;5045999;28;20036;-79
2021/12/12 02:54:04;;;;;;;23.80;10.30;;;;;;;5.36;98.87;101919.38;5056384;28;20382;-79
2021/12/12 02:56:40;;;;;;;21.98;9.38;;;;;;;5.36;99.04;101925.41;5044336;28;20053;-79
2021/12/12 02:59:11;;;;;;;18.73;9.63;;;;;;;5.36;98.79;101930.59;5061384;28;20055;-79
2021/12/12 03:01:45;;;;;;;26.05;10.10;;;;;;;5.36;98.99;101929.75;5042823;28;20037;-79
2021/12/12 03:04:11;;;;;;;20.08;10.18;;;;;;;5.37;99.05;101936.69;5045588;28;20027;-79
2021/12/12 03:06:38;;;;;;;17.48;10.80;;;;;;;5.37;99.03;101936.69;5044323;28;20100;-79
2021/12/12 03:09:06;;;;;;;21.55;11.18;;;;;;;5.36;99.06;101929.75;5061098;28;20070;-79
2021/12/12 03:11:31;;;;;;;23.02;11.20;;;;;;;5.36;99.06;101927.16;5082482;28;20044;-79
2021/12/12 03:13:57;;;;;;;24.63;11.25;;;;;;;5.36;99.17;101916.75;5049103;28;20032;-79
2021/12/12 03:16:22;;;;;;;23.55;11.18;;;;;;;5.38;99.25;101935.81;5051513;28;20047;-78
2021/12/12 03:18:48;;;;;;;18.42;11.63;;;;;;;5.38;99.19;101928.91;5066115;28;20059;-78
2021/12/12 03:21:29;;;;;;;20.30;12.20;;;;;;;5.39;99.30;101925.41;5058111;28;20096;-78
2021/12/12 03:23:56;;;;;;;17.17;11.27;;;;;;;5.41;99.34;101924.56;5057725;28;20124;-78
2021/12/12 03:26:21;;;;;;;23.00;12.35;;;;;;;5.41;99.35;101922.81;5026748;28;20049;-78
2021/12/12 03:28:50;;;;;;;18.20;12.48;;;;;;;5.42;99.33;101918.47;5054063;28;20091;-78
2021/12/12 03:31:18;;;;;;;19.27;13.23;;;;;;;5.44;99.41;101916.75;5060852;28;20036;-78
2021/12/12 03:33:44;;;;;;;21.50;12.67;;;;;;;5.43;99.40;101912.44;5070536;28;20055;-78
2021/12/12 03:36:10;;;;;;;26.30;13.25;;;;;;;5.45;99.45;101921.94;5063825;28;20299;-78
2021/12/12 03:38:46;;;;;;;24.70;14.20;;;;;;;5.45;99.40;101916.75;5056488;28;20029;-78
2021/12/12 03:41:13;;;;;;;25.13;14.35;;;;;;;5.47;99.38;101914.16;5059899;28;20028;-78
2021/12/12 03:43:38;;;;;;;24.15;13.90;;;;;;;5.47;99.70;101917.59;5042983;28;20087;-78
2021/12/12 03:46:06;;;;;;;23.65;14.55;;;;;;;5.49;99.59;101928.84;5052445;28;20064;-78
2021/12/12 03:48:32;;;;;;;24.08;14.10;;;;;;;5.50;99.38;101919.34;5073847;28;20109;-78
2021/12/12 03:50:59;;;;;;;34.33;16.08;;;;;;;5.52;99.50;101925.41;5026505;28;20041;-78
2021/12/12 03:53:25;;;;;;;27.73;15.45;;;;;;;5.52;99.54;101926.25;5049715;28;20418;-78
2021/12/12 03:55:51;;;;;;;22.88;15.23;;;;;;;5.54;99.58;101923.66;5068112;28;20040;-78
2021/12/12 03:58:16;;;;;;;24.88;15.98;;;;;;;5.54;99.29;101939.25;5041072;28;20306;-78
2021/12/12 04:00:44;;;;;;;27.25;16.13;;;;;;;5.53;99.63;101922.81;5062588;28;20074;-78
2021/12/12 04:03:10;;;;;;;29.50;16.20;;;;;;;5.56;99.72;101937.50;5072619;28;20024;-77
2021/12/12 04:05:35;;;;;;;27.85;16.73;;;;;;;5.56;99.69;101934.91;5073742;28;20046;-78
2021/12/12 04:08:01;;;;;;;26.73;16.67;;;;;;;5.57;99.53;101942.72;5061658;28;20040;-78
2021/12/12 04:10:26;;;;;;;27.75;16.33;;;;;;;5.58;99.91;101946.16;5060846;28;20102;-78
2021/12/12 04:12:53;;;;;;;27.67;16.48;;;;;;;5.58;99.91;101948.75;5060341;28;20028;-77
2021/12/12 04:15:18;;;;;;;26.17;16.05;;;;;;;5.61;100.00;101950.50;5059722;28;20035;-78
2021/12/12 04:17:44;;;;;;;25.45;16.48;;;;;;;5.62;99.83;101954.81;5060981;28;20032;-78
2021/12/12 04:20:15;;;;;;;31.00;17.35;;;;;;;5.61;99.96;101945.31;5042908;28;20051;-78
2021/12/12 04:22:41;;;;;;;28.25;17.23;;;;;;;5.62;99.89;101949.63;5044187;28;20024;-78
2021/12/12 04:25:07;;;;;;;30.02;17.42;;;;;;;5.63;99.97;101940.97;5043137;28;20037;-78
2021/12/12 04:27:32;;;;;;;32.70;18.60;;;;;;;5.63;99.85;101941.81;5060772;28;20277;-78
2021/12/12 04:30:02;;;;;;;31.05;17.98;;;;;;;5.65;99.87;101941.84;5075793;28;20028;-78
2021/12/12 04:32:28;;;;;;;26.98;16.52;;;;;;;5.65;100.00;101934.88;5059577;28;20035;-78
2021/12/12 04:34:59;;;;;;;33.25;19.40;;;;;;;5.67;99.99;101940.09;5066509;28;20068;-78
2021/12/12 04:37:24;;;;;;;33.35;19.58;;;;;;;5.68;100.00;101936.63;5042632;28;20056;-78
2021/12/12 04:39:53;;;;;;;35.45;19.27;;;;;;;5.68;100.00;101932.28;5067357;28;20346;-78
2021/12/12 04:42:21;;;;;;;38.60;20.63;;;;;;;5.70;99.98;101932.28;5077978;28;20231;-78
2021/12/12 04:44:48;;;;;;;40.40;21.77;;;;;;;5.70;100.00;101938.34;5048790;28;20028;-78
2021/12/12 04:50:35;;;;;;;41.35;21.10;;;;;;;5.72;100.00;101931.41;5068289;28;20063;-78
2021/12/12 04:53:06;;;;;;;36.17;20.80;;;;;;;5.74;100.00;101927.06;5077492;28;20035;-78
2021/12/12 04:55:47;;;;;;;44.35;22.00;;;;;;;5.76;100.00;101934.84;5057068;28;20032;-78
2021/12/12 04:58:16;;;;;;;38.35;20.00;;;;;;;5.77;100.00;101939.19;5042179;28;20102;-78
2021/12/12 05:00:45;;;;;;;;;;;;;;;5.79;100.00;101923.59;5038934;28;20025;-78
2021/12/12 05:03:12;;;;;;;44.15;22.13;;;;;;;5.81;100.00;101938.31;5056790;28;19917;-78
2021/12/12 05:05:53;;;;;;;41.72;21.63;;;;;;;5.80;100.00;101936.56;5070886;28;20058;-78
2021/12/12 05:08:33;;;;;;;42.08;22.33;;;;;;;5.83;100.00;101946.13;5060115;28;20040;-78
2021/12/12 05:11:03;;;;;;;47.35;22.77;;;;;;;5.83;100.00;101949.56;5058278;28;20220;-78
2021/12/12 05:13:37;;;;;;;46.22;23.05;;;;;;;5.85;100.00;101949.56;5056449;28;20088;-78
2021/12/12 05:16:10;;;;;;;40.45;21.80;;;;;;;5.86;100.00;101943.50;5043507;28;20235;-78
2021/12/12 05:18:48;;;;;;;45.08;22.48;;;;;;;5.88;100.00;101954.75;5076554;28;20134;-78
2021/12/12 05:21:14;;;;;;;44.47;23.85;;;;;;;5.89;100.00;101954.72;5057043;28;20104;-78
2021/12/12 05:23:43;;;;;;;42.60;22.20;;;;;;;5.91;100.00;101960.81;5073906;28;20064;-78
2021/12/12 05:26:14;;;;;;;50.15;24.50;;;;;;;5.92;100.00;101962.53;5040256;28;20033;-78
2021/12/12 05:28:43;;;;;;;46.15;23.40;;;;;;;5.93;100.00;101964.28;5061987;28;20045;-78
2021/12/12 05:31:10;;;;;;;50.80;23.48;;;;;;;5.95;100.00;101965.16;5058186;28;20024;-78
2021/12/12 05:33:36;;;;;;;53.15;24.75;;;;;;;5.96;100.00;101966.88;5057137;28;20104;-78
2021/12/12 05:36:01;;;;;;;49.42;25.52;;;;;;;5.98;100.00;101963.41;5067068;28;20272;-78
2021/12/12 05:38:27;;;;;;;57.45;25.02;;;;;;;5.99;100.00;101971.22;5059061;28;20048;-78
2021/12/12 05:40:52;;;;;;;48.42;24.25;;;;;;;5.99;100.00;101963.41;5074999;28;20235;-78
2021/12/12 05:43:18;;;;;;;41.80;21.00;;;;;;;6.02;100.00;101962.53;5040005;28;20078;-78
2021/12/12 05:45:44;;;;;;;52.05;25.98;;;;;;;6.02;100.00;101966.03;5059442;28;20047;-78
2021/12/12 05:48:09;;;;;;;59.67;26.23;;;;;;;6.03;100.00;101970.34;5076145;28;20070;-78
2021/12/12 05:50:35;;;;;;;55.85;25.73;;;;;;;6.05;100.00;101970.34;5039614;28;20269;-78
2021/12/12 05:53:01;;;;;;;52.38;25.02;;;;;;;6.06;100.00;101975.53;5061086;28;20045;-78
2021/12/12 05:55:30;;;;;;;52.58;25.02;;;;;;;6.07;100.00;101979.00;5060489;28;20100;-78
2021/12/12 05:57:56;;;;;;;52.92;26.15;;;;;;;6.08;100.00;101980.72;5056548;28;20039;-78
2021/12/12 06:00:32;;;;;;;59.40;26.70;;;;;;;6.09;100.00;101988.53;5058823;28;20056;-78
2021/12/12 06:02:57;;;;;;;57.60;26.27;;;;;;;6.11;100.00;101988.50;5058279;28;20319;-78
2021/12/12 06:05:23;;;;;;;62.72;26.92;;;;;;;6.11;100.00;101992.00;5040541;28;20043;-78
2021/12/12 06:07:48;;;;;;;58.42;26.42;;;;;;;6.14;100.00;101994.56;5023924;28;20033;-78
2021/12/12 06:10:15;;;;;;;60.47;28.40;;;;;;;6.15;100.00;101996.31;5040463;28;20029;-78
2021/12/12 06:12:41;;;;;;;66.30;28.90;;;;;;;6.17;100.00;101998.91;5074999;28;20047;-78
2021/12/12 06:15:16;;;;;;;60.92;27.48;;;;;;;6.19;100.00;101998.91;5076424;28;20036;-78
2021/12/12 06:17:41;;;;;;;62.80;27.23;;;;;;;6.20;100.00;101995.41;5053314;28;20099;-78
2021/12/12 06:20:08;;;;;;;46.88;21.83;;;;;;;6.22;100.00;101997.16;5080525;28;20098;-78
2021/12/12 06:22:33;;;;;;;62.97;26.10;;;;;;;6.25;100.00;102001.47;5043811;28;20077;-78
2021/12/12 06:24:59;;;;;;;62.72;26.35;;;;;;;6.24;100.00;102000.63;5061182;28;20032;-78
2021/12/12 06:27:25;;;;;;;64.75;28.27;;;;;;;6.25;100.00;101989.31;5074352;28;20063;-78
2021/12/12 06:29:52;;;;;;;77.15;29.80;;;;;;;6.28;100.00;101998.88;5047196;28;20204;-78
2021/12/12 06:32:17;;;;;;;71.88;28.52;;;;;;;6.30;100.00;101991.91;5079973;28;20045;-78
2021/12/12 06:34:43;;;;;;;71.93;28.73;;;;;;;6.31;100.00;101991.03;5063613;28;20032;-78
2021/12/12 06:37:08;;;;;;;56.75;23.67;;;;;;;6.32;100.00;101991.03;5071333;28;20044;-78
2021/12/12 06:39:34;;;;;;;67.50;26.02;;;;;;;6.34;100.00;101999.69;5027401;28;20035;-78
2021/12/12 06:42:00;;;;;;;72.28;26.50;;;;;;;6.37;100.00;102000.53;5069363;28;20096;-78
2021/12/12 06:44:25;;;;;;;60.70;23.45;;;;;;;6.37;100.00;102003.13;5080149;28;20032;-78
2021/12/12 06:46:51;;;;;;;69.82;27.42;;;;;;;6.38;100.00;101995.31;5045987;28;20028;-78
2021/12/12 06:49:17;;;;;;;55.88;24.88;;;;;;;6.41;100.00;101994.47;5078600;28;20040;-78
2021/12/12 06:51:46;;;;;;;60.50;23.05;;;;;;;6.42;100.00;101989.25;5080151;28;20032;-78
2021/12/12 06:54:13;;;;;;;;;;;;;;;6.43;100.00;101993.56;5048835;28;20418;-78
2021/12/12 06:56:38;;;;;;;67.57;26.10;;;;;;;6.45;100.00;101999.63;5043719;28;19940;-78
2021/12/12 06:59:04;;;;;;;74.78;27.00;;;;;;;6.46;100.00;101996.16;5060925;28;20144;-78
2021/12/12 07:01:31;;;;;;;73.38;27.42;;;;;;;6.48;100.00;102003.97;5068651;28;20051;-78
2021/12/12 07:03:56;;;;;;;78.13;27.73;;;;;;;6.49;100.00;102006.56;5046983;28;20112;-78
2021/12/12 07:06:23;;;;;;;80.43;29.15;;;;;;;6.51;100.00;102006.53;5061220;28;20367;-78
2021/12/12 07:08:49;;;;;;;69.35;26.60;;;;;;;6.51;100.00;102002.22;5059485;28;20070;-78
2021/12/12 07:11:19;;;;;;;81.90;27.88;;;;;;;6.52;100.00;102001.34;5058648;28;20371;-78
2021/12/12 07:13:45;;;;;;;74.97;26.25;;;;;;;6.54;100.00;102011.75;5026779;28;20033;-78
2021/12/12 07:16:10;;;;;;;57.88;24.55;;;;;;;6.58;100.00;102015.19;5046358;28;20025;-78
2021/12/12 07:18:36;;;;;;;71.53;28.10;;;;;;;6.58;100.00;102016.03;5080594;28;20036;-78
2021/12/12 07:21:06;;;;;;;75.65;27.40;;;;;;;6.59;100.00;102023.00;5058877;28;20351;-78
2021/12/12 07:23:32;;;;;;;63.88;25.70;;;;;;;6.60;100.00;102026.47;5062877;28;20048;-78
2021/12/12 07:25:59;;;;;;;77.43;28.48;;;;;;;6.60;100.00;102022.09;5059278;28;20044;-78
2021/12/12 07:28:24;;;;;;;72.57;28.25;;;;;;;6.62;100.00;102025.59;5057082;28;20387;-78
2021/12/12 07:30:50;;;;;;;80.15;26.08;;;;;;;6.63;100.00;102035.13;5073161;28;20044;-78
2021/12/12 07:33:15;;;;;;;74.57;27.25;;;;;;;6.65;100.00;102027.31;5055688;28;20040;-78
2021/12/12 07:35:42;;;;;;;81.45;29.30;;;;;;;6.67;100.00;102028.16;5050800;28;20036;-78
2021/12/12 07:38:10;;;;;;;88.72;29.58;;;;;;;6.68;100.00;102028.16;5053275;28;20091;-78
2021/12/12 07:40:35;;;;;;;82.55;28.75;;;;;;;6.70;100.00;102030.75;5068110;28;20032;-78
2021/12/12 07:43:01;;;;;;;87.40;29.25;;;;;;;6.72;100.00;102040.28;5056058;28;20036;-78
2021/12/12 07:45:26;;;;;;;91.07;26.88;;;;;;;6.74;100.00;102042.88;5039057;28;20025;-78
2021/12/12 07:47:52;;;;;;;66.07;24.08;;;;;;;6.76;100.00;102038.53;5036038;28;20029;-78
2021/12/12 07:50:17;;;;;;;77.40;26.75;;;;;;;6.79;100.00;102037.66;5035128;28;20017;-78
2021/12/12 07:52:43;;;;;;;87.18;27.95;;;;;;;6.79;100.00;102043.72;5046948;28;20258;-78
2021/12/12 07:55:09;;;;;;;83.45;28.45;;;;;;;6.80;100.00;102048.03;5051728;28;20096;-78
2021/12/12 07:57:34;;;;;;;87.32;28.55;;;;;;;6.81;100.00;102049.78;5068981;28;20040;-78
2021/12/12 08:00:00;;;;;;;85.15;27.35;;;;;;;6.83;100.00;102048.03;5070082;28;20035;-78
2021/12/12 08:02:25;;;;;;;95.70;30.20;;;;;;;6.84;100.00;102049.78;5059221;28;20336;-78
2021/12/12 08:04:51;;;;;;;84.70;27.63;;;;;;;6.86;100.00;102061.03;5047574;28;20037;-78
2021/12/12 08:07:18;;;;;;;86.00;28.20;;;;;;;6.89;100.00;102057.53;5047835;28;20040;-78
2021/12/12 08:09:43;;;;;;;79.10;26.55;;;;;;;6.90;100.00;102064.50;5059464;28;20029;-78
2021/12/12 08:12:17;;;;;;;92.20;27.58;;;;;;;6.93;100.00;102064.47;5040666;28;20149;-78
2021/12/12 08:14:43;;;;;;;89.55;28.13;;;;;;;6.93;100.00;102067.09;5069523;28;20100;-78
2021/12/12 08:17:09;;;;;;;93.63;28.15;;;;;;;6.95;100.00;102070.53;5051619;28;20231;-78
2021/12/12 08:19:35;;;;;;;78.97;26.88;;;;;;;6.96;100.00;102081.81;5060527;28;20187;-78
2021/12/12 08:22:04;;;;;;;69.30;26.08;;;;;;;6.99;100.00;102079.19;5054432;28;20138;-78
2021/12/12 08:24:31;;;;;;;;;;;;;;;6.98;100.00;102080.91;5077544;28;20044;-78
2021/12/12 08:26:57;;;;;;;84.85;27.80;;;;;;;7.01;100.00;102087.88;5074948;28;19920;-78
2021/12/12 08:29:22;;;;;;;90.10;27.58;;;;;;;7.03;100.00;102089.56;5054762;28;20350;-78
2021/12/12 08:31:48;;;;;;;96.07;27.90;;;;;;;7.04;100.00;102090.44;5049264;28;20056;-78
2021/12/12 08:34:13;;;;;;;87.43;27.55;;;;;;;7.05;100.00;102095.63;5054460;28;20039;-78
2021/12/12 08:36:42;;;;;;;68.53;24.98;;;;;;;7.06;100.00;102097.38;5073601;28;20048;-78
2021/12/12 08:39:08;;;;;;;85.50;27.30;;;;;;;7.07;100.00;102088.69;5057470;28;20226;-78
2021/12/12 08:41:35;;;;;;;77.13;26.95;;;;;;;7.08;100.00;102100.84;5058825;28;20151;-78
2021/12/12 08:44:01;;;;;;;78.57;26.52;;;;;;;7.11;100.00;102102.56;5072693;28;20312;-78
2021/12/12 08:46:26;;;;;;;76.38;25.92;;;;;;;7.12;100.00;102096.47;5045158;28;20103;-78
2021/12/12 08:48:52;;;;;;;83.78;25.90;;;;;;;7.14;100.00;102094.72;5042181;28;20040;-78
2021/12/12 08:51:25;;;;;;;68.47;23.95;;;;;;;7.15;100.00;102096.47;5065031;28;20368;-78
2021/12/12 08:53:52;;;;;;;67.10;23.33;;;;;;;7.16;100.00;102107.75;5055392;28;20367;-78
2021/12/12 08:56:30;;;;;;;71.03;23.92;;;;;;;7.19;100.00;102112.94;5061667;28;20032;-78
2021/12/12 08:58:55;;;;;;;53.75;20.92;;;;;;;7.20;100.00;102119.88;5039574;28;20079;-78
2021/12/12 09:01:21;;;;;;;55.22;21.40;;;;;;;7.21;100.00;102119.88;5053974;28;20283;-78
2021/12/12 09:03:57;;;;;;;50.42;18.10;;;;;;;7.26;100.00;102122.47;5075893;28;20247;-78
2021/12/12 09:06:25;;;;;;;48.22;19.48;;;;;;;7.28;100.00;102118.09;5066578;28;20033;-78
2021/12/12 09:08:58;;;;;;;37.37;18.23;;;;;;;7.29;100.00;102122.41;5069212;28;20036;-78
2021/12/12 09:11:38;;;;;;;46.05;18.77;;;;;;;7.33;100.00;102124.16;5074446;28;20270;-78
2021/12/12 09:14:13;;;;;;;45.92;19.05;;;;;;;7.36;100.00;102126.72;5075486;28;20023;-78
2021/12/12 09:16:55;;;;;;;38.60;16.45;;;;;;;7.39;100.00;102125.84;5054351;28;20041;-78
2021/12/12 09:19:28;;;;;;;36.42;17.30;;;;;;;7.41;100.00;102137.13;5074286;28;20248;-78
2021/12/12 09:22:35;;;;;;;40.13;16.48;;;;;;;7.42;100.00;102131.91;5053007;28;20365;-78
2021/12/12 09:25:11;;;;;;;41.45;15.95;;;;;;;7.45;100.00;102141.44;4989289;28;20030;-78
2021/12/12 09:27:44;;;;;;;37.80;15.20;;;;;;;7.46;100.00;102144.03;4977357;28;20189;-78
2021/12/12 09:30:23;;;;;;;43.83;16.27;;;;;;;7.48;100.00;102150.09;5014112;28;20390;-78
2021/12/12 09:33:09;;;;;;;34.58;15.52;;;;;;;7.50;100.00;102152.69;5044125;28;20279;-78
2021/12/12 09:35:42;;;;;;;31.92;15.65;;;;;;;7.51;100.00;102149.19;5066490;28;20036;-78
2021/12/12 09:38:15;;;;;;;33.63;16.25;;;;;;;7.53;100.00;102150.09;5065432;28;20037;-78
2021/12/12 09:41:42;;;;;;;30.73;15.15;;;;;;;7.55;100.00;102161.34;5074323;28;20316;-78
2021/12/12 09:44:28;;;;;;;33.25;14.48;;;;;;;7.56;100.00;102154.41;4979035;28;20277;-78
2021/12/12 09:47:11;;;;;;;27.15;15.00;;;;;;;7.57;100.00;102161.34;4968123;28;20027;-78
2021/12/12 09:52:48;;;;;;;32.13;15.20;;;;;;;7.59;100.00;102168.28;5067346;28;20047;-78
2021/12/12 09:55:42;;;;;;;28.52;14.48;;;;;;;7.60;100.00;102166.53;5063309;28;20245;-78
2021/12/12 09:58:20;;;;;;;30.10;15.93;;;;;;;7.59;100.00;102160.44;5035091;28;20044;-78
2021/12/12 10:01:08;;;;;;;24.80;13.35;;;;;;;7.61;100.00;102163.06;5059196;28;20104;-78
2021/12/12 10:04:07;;;;;;;31.33;15.07;;;;;;;7.62;100.00;102160.44;5051217;28;20047;-78
2021/12/12 10:07:02;;;;;;;27.25;14.57;;;;;;;7.64;100.00;102161.28;5045886;28;20020;-78
2021/12/12 10:09:47;;;;;;;28.40;14.48;;;;;;;7.65;100.00;102149.09;5071707;28;20404;-78
2021/12/12 10:12:16;;;;;;;30.88;15.15;;;;;;;7.67;100.00;102155.19;5032731;28;20280;-78
2021/12/12 10:15:06;;;;;;;26.13;12.95;;;;;;;7.69;100.00;102156.03;5046329;28;20120;-78
2021/12/12 10:17:44;;;;;;;28.67;15.88;;;;;;;7.70;100.00;102152.56;5060149;28;20379;-78
2021/12/12 10:20:18;;;;;;;31.27;15.90;;;;;;;7.72;100.00;102155.16;5056849;28;20296;-78
2021/12/12 10:23:12;;;;;;;25.10;14.30;;;;;;;7.72;100.00;102161.22;5044292;28;20024;-78
2021/12/12 10:26:04;;;;;;;30.20;14.45;;;;;;;7.74;100.00;102162.06;5064306;28;20048;-78
2021/12/12 10:28:41;;;;;;;34.08;16.15;;;;;;;7.75;100.00;102161.22;5061789;28;20033;-78
2021/12/12 10:31:32;;;;;;;27.45;13.88;;;;;;;7.76;100.00;102164.69;5059936;28;20045;-78
2021/12/12 10:34:02;;;;;;;29.45;15.10;;;;;;;7.79;100.00;102164.66;5055500;28;20111;-78
2021/12/12 10:36:55;;;;;;;27.80;14.82;;;;;;;7.79;100.00;102162.91;5064752;28;20410;-78
2021/12/12 10:39:39;;;;;;;25.88;14.15;;;;;;;7.82;100.00;102167.22;5011595;28;20145;-78
2021/12/12 10:42:10;;;;;;;25.05;15.27;;;;;;;7.83;100.00;102172.44;5071410;28;20047;-78
2021/12/12 10:45:00;;;;;;;33.78;16.02;;;;;;;7.85;100.00;102172.44;5069356;28;20056;-78
2021/12/12 10:47:30;;;;;;;24.50;14.30;;;;;;;7.85;100.00;102173.28;5055855;28;20098;-78
2021/12/12 10:50:12;;;;;;;26.83;15.23;;;;;;;7.86;100.00;102171.56;5074169;28;20037;-78
2021/12/12 10:52:43;;;;;;;22.65;13.45;;;;;;;7.87;100.00;102176.75;5043544;28;20033;-78
2021/12/12 10:55:33;;;;;;;29.30;15.68;;;;;;;7.88;100.00;102173.28;5073138;28;20243;-78
2021/12/12 10:58:49;;;;;;;20.48;12.20;;;;;;;7.92;100.00;102170.66;5063243;28;20074;-78
2021/12/12 11:01:30;;;;;;;20.48;12.27;;;;;;;7.94;100.00;102176.72;5044722;28;20089;-78
2021/12/12 11:04:20;;;;;;;23.27;12.82;;;;;;;7.94;100.00;102169.75;5072608;28;20219;-78
2021/12/12 11:06:47;;;;;;;18.83;12.10;;;;;;;7.97;100.00;102176.69;5059959;28;20044;-78
2021/12/12 11:09:38;;;;;;;18.92;10.95;;;;;;;7.97;100.00;102171.47;5067770;28;20036;-78
2021/12/12 11:12:21;;;;;;;17.27;11.30;;;;;;;7.98;100.00;102173.19;5043072;28;20051;-78
2021/12/12 11:15:06;;;;;;;17.38;10.95;;;;;;;7.99;100.00;102170.56;5070529;28;20354;-78
2021/12/12 11:17:46;;;;;;;16.42;9.73;;;;;;;8.01;100.00;102171.41;5059086;28;20330;-78
2021/12/12 11:20:31;;;;;;;12.05;8.55;;;;;;;8.03;100.00;102181.84;5058825;28;20340;-78
2021/12/12 11:23:00;;;;;;;16.33;10.15;;;;;;;8.05;100.00;102177.47;5059101;28;20040;-78
2021/12/12 11:25:35;;;;;;;11.18;8.43;;;;;;;8.07;100.00;102176.56;5061337;28;20052;-78
2021/12/12 11:28:25;;;;;;;17.40;10.18;;;;;;;8.08;100.00;102178.31;5065861;28;20061;-78
2021/12/12 11:30:55;;;;;;;15.48;9.10;;;;;;;8.11;100.00;102176.56;5054978;28;20248;-78
2021/12/12 11:33:21;;;;;;;11.32;8.48;;;;;;;8.11;100.00;102182.63;5057261;28;20040;-78
2021/12/12 11:35:48;;;;;;;14.15;9.45;;;;;;;8.13;100.00;102185.22;5059352;28;20280;-78
2021/12/12 11:38:37;;;;;;;13.10;8.27;;;;;;;8.16;100.00;102185.22;5043075;28;20236;-78
2021/12/12 11:41:17;;;;;;;9.85;7.63;;;;;;;8.20;100.00;102189.50;5060713;28;20074;-78
2021/12/12 11:43:48;;;;;;;10.32;8.15;;;;;;;8.20;100.00;102186.91;5060112;28;20099;-77
2021/12/12 11:46:34;;;;;;;10.07;6.80;;;;;;;8.22;100.00;102193.88;5059576;28;20029;-77
2021/12/12 11:49:21;;;;;;;15.63;8.40;;;;;;;8.23;100.00;102192.97;5058667;28;20100;-77